sensor_id;sensor_type;location;lat;lon;timestamp;P1;durP1;ratioP1;P2;durP2;ratioP2
76818;SDS011;65772;51.096;17.006;2023-06-22T00:01:57;12.80;;;10.10;;
76818;SDS011;65772;51.096;17.006;2023-06-22T00:04:29;12.40;;;10.80;;
76818;SDS011;65772;51.096;17.006;2023-06-22T00:07:00;12.90;;;10.20;;
76818;SDS011;65772;51.096;17.006;2023-06-22T00:09:30;14.10;;;10.60;;
76818;SDS011;65772;51.096;17.006;2023-06-22T00:12:02;14.30;;;10.40;;
76818;SDS011;65772;51.096;17.006;2023-06-22T00:14:33;13.60;;;11.30;;
76818;SDS011;65772;51.096;17.006;2023-06-22T00:17:04;12.40;;;10.40;;
76818;SDS011;65772;51.096;17.006;2023-06-22T00:19:35;11.70;;;9.90;;
76818;SDS011;65772;51.096;17.006;2023-06-22T00:22:08;14.00;;;11.20;;
76818;SDS011;65772;51.096;17.006;2023-06-22T00:24:38;12.30;;;10.40;;
76818;SDS011;65772;51.096;17.006;2023-06-22T00:27:09;12.90;;;10.80;;
76818;SDS011;65772;51.096;17.006;2023-06-22T00:29:40;14.80;;;11.00;;
76818;SDS011;65772;51.096;17.006;2023-06-22T00:32:10;12.70;;;10.40;;
76818;SDS011;65772;51.096;17.006;2023-06-22T00:34:41;14.20;;;10.40;;
76818;SDS011;65772;51.096;17.006;2023-06-22T00:37:11;14.20;;;11.60;;
76818;SDS011;65772;51.096;17.006;2023-06-22T00:39:42;16.20;;;11.70;;
76818;SDS011;65772;51.096;17.006;2023-06-22T00:42:13;13.80;;;11.60;;
76818;SDS011;65772;51.096;17.006;2023-06-22T00:44:43;14.40;;;10.90;;
76818;SDS011;65772;51.096;17.006;2023-06-22T00:47:14;16.20;;;11.60;;
76818;SDS011;65772;51.096;17.006;2023-06-22T00:49:48;13.10;;;11.00;;
76818;SDS011;65772;51.096;17.006;2023-06-22T00:52:20;13.20;;;10.50;;
76818;SDS011;65772;51.096;17.006;2023-06-22T00:54:56;14.10;;;11.10;;
76818;SDS011;65772;51.096;17.006;2023-06-22T00:57:29;13.20;;;11.10;;
76818;SDS011;65772;51.096;17.006;2023-06-22T01:00:00;14.10;;;10.80;;
76818;SDS011;65772;51.096;17.006;2023-06-22T01:02:41;14.70;;;10.70;;
76818;SDS011;65772;51.096;17.006;2023-06-22T01:05:14;14.70;;;11.80;;
76818;SDS011;65772;51.096;17.006;2023-06-22T01:07:48;14.10;;;10.70;;
76818;SDS011;65772;51.096;17.006;2023-06-22T01:10:29;12.70;;;10.50;;
76818;SDS011;65772;51.096;17.006;2023-06-22T01:13:06;14.30;;;11.10;;
76818;SDS011;65772;51.096;17.006;2023-06-22T01:15:43;14.80;;;11.70;;
76818;SDS011;65772;51.096;17.006;2023-06-22T01:18:18;14.10;;;11.10;;
76818;SDS011;65772;51.096;17.006;2023-06-22T01:20:53;14.00;;;11.10;;
76818;SDS011;65772;51.096;17.006;2023-06-22T01:23:29;16.00;;;11.60;;
76818;SDS011;65772;51.096;17.006;2023-06-22T01:26:14;16.30;;;11.60;;
76818;SDS011;65772;51.096;17.006;2023-06-22T01:28:49;13.60;;;10.70;;
76818;SDS011;65772;51.096;17.006;2023-06-22T01:31:23;14.40;;;10.70;;
76818;SDS011;65772;51.096;17.006;2023-06-22T01:33:58;16.50;;;11.40;;
76818;SDS011;65772;51.096;17.006;2023-06-22T01:36:31;14.10;;;11.10;;
76818;SDS011;65772;51.096;17.006;2023-06-22T01:39:03;16.50;;;11.50;;
76818;SDS011;65772;51.096;17.006;2023-06-22T01:41:37;13.90;;;10.50;;
76818;SDS011;65772;51.096;17.006;2023-06-22T01:44:09;14.60;;;12.30;;
76818;SDS011;65772;51.096;17.006;2023-06-22T01:46:42;15.90;;;11.60;;
76818;SDS011;65772;51.096;17.006;2023-06-22T01:49:14;15.50;;;11.40;;
76818;SDS011;65772;51.096;17.006;2023-06-22T01:51:45;14.70;;;11.80;;
76818;SDS011;65772;51.096;17.006;2023-06-22T01:54:16;15.90;;;11.40;;
76818;SDS011;65772;51.096;17.006;2023-06-22T01:56:47;15.40;;;11.10;;
76818;SDS011;65772;51.096;17.006;2023-06-22T01:59:19;15.70;;;11.60;;
76818;SDS011;65772;51.096;17.006;2023-06-22T02:01:57;15.40;;;10.90;;
76818;SDS011;65772;51.096;17.006;2023-06-22T02:04:32;15.90;;;11.80;;
76818;SDS011;65772;51.096;17.006;2023-06-22T02:07:13;15.80;;;12.00;;
76818;SDS011;65772;51.096;17.006;2023-06-22T02:09:46;16.60;;;11.20;;
76818;SDS011;65772;51.096;17.006;2023-06-22T02:12:22;16.10;;;11.30;;
76818;SDS011;65772;51.096;17.006;2023-06-22T02:14:55;13.90;;;11.00;;
76818;SDS011;65772;51.096;17.006;2023-06-22T02:17:28;18.10;;;13.60;;
76818;SDS011;65772;51.096;17.006;2023-06-22T02:20:02;13.90;;;11.30;;
76818;SDS011;65772;51.096;17.006;2023-06-22T02:22:36;16.10;;;12.10;;
76818;SDS011;65772;51.096;17.006;2023-06-22T02:25:07;16.00;;;12.50;;
76818;SDS011;65772;51.096;17.006;2023-06-22T02:27:38;14.20;;;11.80;;
76818;SDS011;65772;51.096;17.006;2023-06-22T02:30:09;15.50;;;11.70;;
76818;SDS011;65772;51.096;17.006;2023-06-22T02:32:42;19.10;;;12.40;;
76818;SDS011;65772;51.096;17.006;2023-06-22T02:35:16;14.10;;;11.30;;
76818;SDS011;65772;51.096;17.006;2023-06-22T02:37:46;17.70;;;12.10;;
76818;SDS011;65772;51.096;17.006;2023-06-22T02:40:19;15.80;;;11.40;;
76818;SDS011;65772;51.096;17.006;2023-06-22T02:42:50;15.20;;;11.90;;
76818;SDS011;65772;51.096;17.006;2023-06-22T02:45:20;17.70;;;13.20;;
76818;SDS011;65772;51.096;17.006;2023-06-22T02:47:51;16.70;;;11.80;;
76818;SDS011;65772;51.096;17.006;2023-06-22T02:50:22;13.80;;;11.10;;
76818;SDS011;65772;51.096;17.006;2023-06-22T02:52:53;17.70;;;12.00;;
76818;SDS011;65772;51.096;17.006;2023-06-22T02:55:24;18.10;;;12.00;;
76818;SDS011;65772;51.096;17.006;2023-06-22T02:57:56;16.90;;;12.00;;
76818;SDS011;65772;51.096;17.006;2023-06-22T03:00:28;17.40;;;12.80;;
76818;SDS011;65772;51.096;17.006;2023-06-22T03:02:59;17.60;;;12.60;;
76818;SDS011;65772;51.096;17.006;2023-06-22T03:05:30;18.10;;;11.60;;
76818;SDS011;65772;51.096;17.006;2023-06-22T03:08:03;15.20;;;11.60;;
76818;SDS011;65772;51.096;17.006;2023-06-22T03:13:03;14.90;;;11.60;;
76818;SDS011;65772;51.096;17.006;2023-06-22T03:15:34;16.20;;;11.30;;
76818;SDS011;65772;51.096;17.006;2023-06-22T03:18:04;16.40;;;12.30;;
76818;SDS011;65772;51.096;17.006;2023-06-22T03:20:35;16.50;;;11.50;;
76818;SDS011;65772;51.096;17.006;2023-06-22T03:23:05;16.10;;;12.00;;
76818;SDS011;65772;51.096;17.006;2023-06-22T03:25:36;17.90;;;12.30;;
76818;SDS011;65772;51.096;17.006;2023-06-22T03:28:06;15.80;;;12.10;;
76818;SDS011;65772;51.096;17.006;2023-06-22T03:30:37;27.60;;;20.00;;
76818;SDS011;65772;51.096;17.006;2023-06-22T03:33:07;27.10;;;22.50;;
76818;SDS011;65772;51.096;17.006;2023-06-22T03:35:38;20.90;;;17.00;;
76818;SDS011;65772;51.096;17.006;2023-06-22T03:38:08;17.90;;;13.00;;
76818;SDS011;65772;51.096;17.006;2023-06-22T03:40:39;19.00;;;14.40;;
76818;SDS011;65772;51.096;17.006;2023-06-22T03:43:10;17.00;;;12.90;;
76818;SDS011;65772;51.096;17.006;2023-06-22T03:45:40;19.40;;;14.90;;
76818;SDS011;65772;51.096;17.006;2023-06-22T03:48:13;16.70;;;13.60;;
76818;SDS011;65772;51.096;17.006;2023-06-22T03:50:43;20.50;;;14.30;;
76818;SDS011;65772;51.096;17.006;2023-06-22T03:53:14;15.90;;;12.40;;
76818;SDS011;65772;51.096;17.006;2023-06-22T03:55:49;17.90;;;13.00;;
76818;SDS011;65772;51.096;17.006;2023-06-22T03:58:21;20.10;;;12.60;;
76818;SDS011;65772;51.096;17.006;2023-06-22T04:00:52;20.30;;;13.00;;
76818;SDS011;65772;51.096;17.006;2023-06-22T04:03:23;13.60;;;11.80;;
76818;SDS011;65772;51.096;17.006;2023-06-22T04:05:53;19.20;;;14.30;;
76818;SDS011;65772;51.096;17.006;2023-06-22T04:08:24;18.20;;;14.40;;
76818;SDS011;65772;51.096;17.006;2023-06-22T04:10:54;20.60;;;17.40;;
76818;SDS011;65772;51.096;17.006;2023-06-22T04:13:25;20.10;;;16.10;;
76818;SDS011;65772;51.096;17.006;2023-06-22T04:15:56;19.30;;;14.80;;
76818;SDS011;65772;51.096;17.006;2023-06-22T04:18:26;18.60;;;13.80;;
76818;SDS011;65772;51.096;17.006;2023-06-22T04:20:57;17.20;;;13.90;;
76818;SDS011;65772;51.096;17.006;2023-06-22T04:23:28;18.30;;;13.20;;
76818;SDS011;65772;51.096;17.006;2023-06-22T04:25:58;17.80;;;12.80;;
76818;SDS011;65772;51.096;17.006;2023-06-22T04:28:29;16.90;;;13.00;;
76818;SDS011;65772;51.096;17.006;2023-06-22T04:31:02;15.50;;;13.30;;
76818;SDS011;65772;51.096;17.006;2023-06-22T04:33:33;18.70;;;13.50;;
76818;SDS011;65772;51.096;17.006;2023-06-22T04:36:03;20.00;;;13.80;;
76818;SDS011;65772;51.096;17.006;2023-06-22T04:38:34;17.90;;;13.50;;
76818;SDS011;65772;51.096;17.006;2023-06-22T04:41:09;19.90;;;13.20;;
76818;SDS011;65772;51.096;17.006;2023-06-22T04:43:51;20.00;;;14.10;;
76818;SDS011;65772;51.096;17.006;2023-06-22T04:46:28;19.40;;;13.30;;
76818;SDS011;65772;51.096;17.006;2023-06-22T04:48:58;17.20;;;13.80;;
76818;SDS011;65772;51.096;17.006;2023-06-22T04:51:29;19.40;;;15.10;;
76818;SDS011;65772;51.096;17.006;2023-06-22T04:53:59;16.90;;;13.70;;
76818;SDS011;65772;51.096;17.006;2023-06-22T04:56:30;16.90;;;13.60;;
76818;SDS011;65772;51.096;17.006;2023-06-22T04:59:00;17.00;;;12.80;;
76818;SDS011;65772;51.096;17.006;2023-06-22T05:04:02;19.70;;;14.80;;
76818;SDS011;65772;51.096;17.006;2023-06-22T05:06:34;19.90;;;15.40;;
76818;SDS011;65772;51.096;17.006;2023-06-22T05:09:07;21.50;;;15.50;;
76818;SDS011;65772;51.096;17.006;2023-06-22T05:11:39;18.10;;;14.20;;
76818;SDS011;65772;51.096;17.006;2023-06-22T05:14:10;18.40;;;13.60;;
76818;SDS011;65772;51.096;17.006;2023-06-22T05:16:42;19.80;;;15.00;;
76818;SDS011;65772;51.096;17.006;2023-06-22T05:19:13;18.90;;;14.70;;
76818;SDS011;65772;51.096;17.006;2023-06-22T05:24:40;19.30;;;14.10;;
76818;SDS011;65772;51.096;17.006;2023-06-22T05:27:11;18.70;;;14.80;;
76818;SDS011;65772;51.096;17.006;2023-06-22T05:29:42;22.00;;;15.20;;
76818;SDS011;65772;51.096;17.006;2023-06-22T05:32:13;22.10;;;15.60;;
76818;SDS011;65772;51.096;17.006;2023-06-22T05:34:43;17.30;;;13.60;;
76818;SDS011;65772;51.096;17.006;2023-06-22T05:37:14;17.90;;;13.40;;
76818;SDS011;65772;51.096;17.006;2023-06-22T05:39:44;18.10;;;13.60;;
76818;SDS011;65772;51.096;17.006;2023-06-22T05:42:15;20.30;;;15.20;;
76818;SDS011;65772;51.096;17.006;2023-06-22T05:44:45;18.70;;;14.50;;
76818;SDS011;65772;51.096;17.006;2023-06-22T05:47:16;17.00;;;13.40;;
76818;SDS011;65772;51.096;17.006;2023-06-22T05:49:46;15.70;;;11.80;;
76818;SDS011;65772;51.096;17.006;2023-06-22T05:52:17;22.50;;;12.80;;
76818;SDS011;65772;51.096;17.006;2023-06-22T05:54:47;16.60;;;11.90;;
76818;SDS011;65772;51.096;17.006;2023-06-22T05:57:18;14.40;;;12.00;;
76818;SDS011;65772;51.096;17.006;2023-06-22T05:59:49;14.70;;;11.30;;
76818;SDS011;65772;51.096;17.006;2023-06-22T06:02:21;16.40;;;10.50;;
76818;SDS011;65772;51.096;17.006;2023-06-22T06:04:53;14.10;;;10.50;;
76818;SDS011;65772;51.096;17.006;2023-06-22T06:07:23;15.10;;;10.70;;
76818;SDS011;65772;51.096;17.006;2023-06-22T06:09:55;13.30;;;9.60;;
76818;SDS011;65772;51.096;17.006;2023-06-22T06:12:25;13.00;;;9.80;;
76818;SDS011;65772;51.096;17.006;2023-06-22T06:14:56;16.70;;;13.00;;
76818;SDS011;65772;51.096;17.006;2023-06-22T06:17:26;13.30;;;11.30;;
76818;SDS011;65772;51.096;17.006;2023-06-22T06:19:58;13.70;;;10.00;;
76818;SDS011;65772;51.096;17.006;2023-06-22T06:22:32;14.30;;;9.90;;
76818;SDS011;65772;51.096;17.006;2023-06-22T06:25:03;17.90;;;13.40;;
76818;SDS011;65772;51.096;17.006;2023-06-22T06:27:35;13.30;;;11.00;;
76818;SDS011;65772;51.096;17.006;2023-06-22T06:30:07;12.40;;;9.90;;
76818;SDS011;65772;51.096;17.006;2023-06-22T06:32:39;14.70;;;9.70;;
76818;SDS011;65772;51.096;17.006;2023-06-22T06:35:11;13.20;;;9.50;;
76818;SDS011;65772;51.096;17.006;2023-06-22T06:37:44;11.70;;;8.70;;
76818;SDS011;65772;51.096;17.006;2023-06-22T06:40:16;12.30;;;9.10;;
76818;SDS011;65772;51.096;17.006;2023-06-22T06:42:47;14.50;;;10.20;;
76818;SDS011;65772;51.096;17.006;2023-06-22T06:45:19;18.50;;;13.00;;
76818;SDS011;65772;51.096;17.006;2023-06-22T06:47:51;16.90;;;12.30;;
76818;SDS011;65772;51.096;17.006;2023-06-22T06:50:22;12.60;;;9.60;;
76818;SDS011;65772;51.096;17.006;2023-06-22T06:52:53;12.80;;;8.80;;
76818;SDS011;65772;51.096;17.006;2023-06-22T06:55:27;12.40;;;9.30;;
76818;SDS011;65772;51.096;17.006;2023-06-22T06:58:01;15.10;;;11.60;;
76818;SDS011;65772;51.096;17.006;2023-06-22T07:00:35;12.10;;;9.50;;
76818;SDS011;65772;51.096;17.006;2023-06-22T07:03:05;12.20;;;9.50;;
76818;SDS011;65772;51.096;17.006;2023-06-22T07:05:37;13.50;;;9.30;;
76818;SDS011;65772;51.096;17.006;2023-06-22T07:08:07;13.80;;;9.00;;
76818;SDS011;65772;51.096;17.006;2023-06-22T07:10:38;12.90;;;9.40;;
76818;SDS011;65772;51.096;17.006;2023-06-22T07:13:08;14.90;;;10.70;;
76818;SDS011;65772;51.096;17.006;2023-06-22T07:15:39;14.50;;;10.70;;
76818;SDS011;65772;51.096;17.006;2023-06-22T07:18:09;13.90;;;10.10;;
76818;SDS011;65772;51.096;17.006;2023-06-22T07:20:41;13.90;;;10.20;;
76818;SDS011;65772;51.096;17.006;2023-06-22T07:23:12;12.30;;;10.10;;
76818;SDS011;65772;51.096;17.006;2023-06-22T07:25:42;15.60;;;11.00;;
76818;SDS011;65772;51.096;17.006;2023-06-22T07:28:13;12.80;;;10.60;;
76818;SDS011;65772;51.096;17.006;2023-06-22T07:30:43;15.60;;;11.40;;
76818;SDS011;65772;51.096;17.006;2023-06-22T07:35:45;14.20;;;10.30;;
76818;SDS011;65772;51.096;17.006;2023-06-22T07:38:16;13.50;;;10.10;;
76818;SDS011;65772;51.096;17.006;2023-06-22T07:40:46;19.70;;;14.00;;
76818;SDS011;65772;51.096;17.006;2023-06-22T07:43:18;18.00;;;14.40;;
76818;SDS011;65772;51.096;17.006;2023-06-22T07:45:51;15.80;;;12.20;;
76818;SDS011;65772;51.096;17.006;2023-06-22T07:48:22;16.00;;;12.60;;
76818;SDS011;65772;51.096;17.006;2023-06-22T07:50:52;15.40;;;11.50;;
76818;SDS011;65772;51.096;17.006;2023-06-22T07:53:23;15.00;;;12.00;;
76818;SDS011;65772;51.096;17.006;2023-06-22T07:55:54;18.50;;;11.90;;
76818;SDS011;65772;51.096;17.006;2023-06-22T07:58:24;16.30;;;11.90;;
76818;SDS011;65772;51.096;17.006;2023-06-22T08:00:54;15.40;;;11.40;;
76818;SDS011;65772;51.096;17.006;2023-06-22T08:03:25;16.90;;;11.50;;
76818;SDS011;65772;51.096;17.006;2023-06-22T08:05:56;18.80;;;12.90;;
76818;SDS011;65772;51.096;17.006;2023-06-22T08:08:26;17.40;;;12.60;;
76818;SDS011;65772;51.096;17.006;2023-06-22T08:10:57;14.30;;;11.00;;
76818;SDS011;65772;51.096;17.006;2023-06-22T08:13:28;15.20;;;11.20;;
76818;SDS011;65772;51.096;17.006;2023-06-22T08:15:58;13.90;;;10.90;;
76818;SDS011;65772;51.096;17.006;2023-06-22T08:18:29;13.50;;;11.00;;
76818;SDS011;65772;51.096;17.006;2023-06-22T08:21:00;14.20;;;11.20;;
76818;SDS011;65772;51.096;17.006;2023-06-22T08:23:32;14.60;;;10.50;;
76818;SDS011;65772;51.096;17.006;2023-06-22T08:26:03;16.40;;;11.70;;
76818;SDS011;65772;51.096;17.006;2023-06-22T08:28:34;14.80;;;11.80;;
76818;SDS011;65772;51.096;17.006;2023-06-22T08:31:04;13.40;;;10.60;;
76818;SDS011;65772;51.096;17.006;2023-06-22T08:33:36;14.20;;;11.60;;
76818;SDS011;65772;51.096;17.006;2023-06-22T08:36:16;15.10;;;11.90;;
76818;SDS011;65772;51.096;17.006;2023-06-22T08:38:47;14.40;;;11.20;;
76818;SDS011;65772;51.096;17.006;2023-06-22T08:41:19;16.40;;;11.30;;
76818;SDS011;65772;51.096;17.006;2023-06-22T08:43:49;12.80;;;10.20;;
76818;SDS011;65772;51.096;17.006;2023-06-22T08:46:20;14.40;;;11.00;;
76818;SDS011;65772;51.096;17.006;2023-06-22T08:48:58;13.30;;;10.20;;
76818;SDS011;65772;51.096;17.006;2023-06-22T08:51:29;15.10;;;11.00;;
76818;SDS011;65772;51.096;17.006;2023-06-22T08:54:00;14.50;;;11.00;;
76818;SDS011;65772;51.096;17.006;2023-06-22T08:56:30;14.30;;;11.00;;
76818;SDS011;65772;51.096;17.006;2023-06-22T08:59:01;14.50;;;11.10;;
76818;SDS011;65772;51.096;17.006;2023-06-22T09:01:31;13.80;;;11.10;;
76818;SDS011;65772;51.096;17.006;2023-06-22T09:04:02;12.60;;;10.30;;
76818;SDS011;65772;51.096;17.006;2023-06-22T09:06:35;12.20;;;9.90;;
76818;SDS011;65772;51.096;17.006;2023-06-22T09:09:09;10.90;;;9.40;;
76818;SDS011;65772;51.096;17.006;2023-06-22T09:11:39;12.70;;;9.70;;
76818;SDS011;65772;51.096;17.006;2023-06-22T09:14:10;13.60;;;9.90;;
76818;SDS011;65772;51.096;17.006;2023-06-22T09:16:41;12.70;;;10.20;;
76818;SDS011;65772;51.096;17.006;2023-06-22T09:19:12;12.40;;;9.80;;
76818;SDS011;65772;51.096;17.006;2023-06-22T09:21:42;12.60;;;9.90;;
76818;SDS011;65772;51.096;17.006;2023-06-22T09:24:13;14.20;;;10.20;;
76818;SDS011;65772;51.096;17.006;2023-06-22T09:26:43;11.90;;;9.00;;
76818;SDS011;65772;51.096;17.006;2023-06-22T09:29:14;33.10;;;24.20;;
76818;SDS011;65772;51.096;17.006;2023-06-22T09:31:44;14.20;;;10.40;;
76818;SDS011;65772;51.096;17.006;2023-06-22T09:34:15;11.90;;;9.30;;
76818;SDS011;65772;51.096;17.006;2023-06-22T09:36:47;12.90;;;9.30;;
76818;SDS011;65772;51.096;17.006;2023-06-22T09:39:18;12.80;;;9.40;;
76818;SDS011;65772;51.096;17.006;2023-06-22T09:41:49;13.60;;;10.80;;
76818;SDS011;65772;51.096;17.006;2023-06-22T09:44:19;14.00;;;10.70;;
76818;SDS011;65772;51.096;17.006;2023-06-22T09:46:50;14.60;;;10.40;;
76818;SDS011;65772;51.096;17.006;2023-06-22T09:49:21;11.00;;;8.90;;
76818;SDS011;65772;51.096;17.006;2023-06-22T09:52:11;9.50;;;8.10;;
76818;SDS011;65772;51.096;17.006;2023-06-22T09:54:41;10.50;;;8.60;;
76818;SDS011;65772;51.096;17.006;2023-06-22T09:57:12;11.70;;;8.00;;
76818;SDS011;65772;51.096;17.006;2023-06-22T09:59:43;11.60;;;8.40;;
76818;SDS011;65772;51.096;17.006;2023-06-22T10:02:17;10.10;;;8.00;;
76818;SDS011;65772;51.096;17.006;2023-06-22T10:04:48;10.80;;;8.10;;
76818;SDS011;65772;51.096;17.006;2023-06-22T10:07:19;9.40;;;7.60;;
76818;SDS011;65772;51.096;17.006;2023-06-22T10:09:50;10.40;;;7.70;;
76818;SDS011;65772;51.096;17.006;2023-06-22T10:12:20;11.30;;;7.80;;
76818;SDS011;65772;51.096;17.006;2023-06-22T10:14:51;9.60;;;7.50;;
76818;SDS011;65772;51.096;17.006;2023-06-22T10:17:22;8.60;;;7.50;;
76818;SDS011;65772;51.096;17.006;2023-06-22T10:19:53;9.70;;;7.90;;
76818;SDS011;65772;51.096;17.006;2023-06-22T10:22:23;9.40;;;7.40;;
76818;SDS011;65772;51.096;17.006;2023-06-22T10:24:54;10.70;;;7.40;;
76818;SDS011;65772;51.096;17.006;2023-06-22T10:27:24;9.50;;;7.60;;
76818;SDS011;65772;51.096;17.006;2023-06-22T10:29:54;10.20;;;7.70;;
76818;SDS011;65772;51.096;17.006;2023-06-22T10:32:25;10.00;;;7.20;;
76818;SDS011;65772;51.096;17.006;2023-06-22T10:34:56;14.40;;;7.90;;
76818;SDS011;65772;51.096;17.006;2023-06-22T10:37:27;9.90;;;7.00;;
76818;SDS011;65772;51.096;17.006;2023-06-22T10:39:58;11.80;;;7.60;;
76818;SDS011;65772;51.096;17.006;2023-06-22T10:42:28;10.30;;;7.80;;
76818;SDS011;65772;51.096;17.006;2023-06-22T10:44:59;9.70;;;7.40;;
76818;SDS011;65772;51.096;17.006;2023-06-22T10:47:31;10.90;;;8.10;;
76818;SDS011;65772;51.096;17.006;2023-06-22T10:50:01;9.30;;;7.50;;
76818;SDS011;65772;51.096;17.006;2023-06-22T10:52:33;12.10;;;8.60;;
76818;SDS011;65772;51.096;17.006;2023-06-22T10:55:04;11.20;;;8.30;;
76818;SDS011;65772;51.096;17.006;2023-06-22T10:57:36;8.90;;;7.20;;
76818;SDS011;65772;51.096;17.006;2023-06-22T11:00:12;9.80;;;7.50;;
76818;SDS011;65772;51.096;17.006;2023-06-22T11:02:44;10.10;;;7.20;;
76818;SDS011;65772;51.096;17.006;2023-06-22T11:05:15;9.70;;;7.40;;
76818;SDS011;65772;51.096;17.006;2023-06-22T11:07:45;8.30;;;6.70;;
76818;SDS011;65772;51.096;17.006;2023-06-22T11:10:17;9.40;;;7.10;;
76818;SDS011;65772;51.096;17.006;2023-06-22T11:12:48;10.10;;;7.20;;
76818;SDS011;65772;51.096;17.006;2023-06-22T11:15:18;10.40;;;7.60;;
76818;SDS011;65772;51.096;17.006;2023-06-22T11:17:49;10.40;;;7.50;;
76818;SDS011;65772;51.096;17.006;2023-06-22T11:20:19;10.00;;;7.40;;
76818;SDS011;65772;51.096;17.006;2023-06-22T11:22:50;15.00;;;10.20;;
76818;SDS011;65772;51.096;17.006;2023-06-22T11:25:20;17.10;;;13.30;;
76818;SDS011;65772;51.096;17.006;2023-06-22T11:27:51;20.00;;;15.10;;
76818;SDS011;65772;51.096;17.006;2023-06-22T11:30:22;11.90;;;9.60;;
76818;SDS011;65772;51.096;17.006;2023-06-22T11:32:52;10.70;;;8.00;;
76818;SDS011;65772;51.096;17.006;2023-06-22T11:35:23;9.80;;;7.40;;
76818;SDS011;65772;51.096;17.006;2023-06-22T11:37:54;9.30;;;7.00;;
76818;SDS011;65772;51.096;17.006;2023-06-22T11:40:26;10.70;;;6.90;;
76818;SDS011;65772;51.096;17.006;2023-06-22T11:42:57;10.50;;;6.80;;
76818;SDS011;65772;51.096;17.006;2023-06-22T11:45:27;9.40;;;6.90;;
76818;SDS011;65772;51.096;17.006;2023-06-22T11:47:57;8.80;;;6.40;;
76818;SDS011;65772;51.096;17.006;2023-06-22T11:50:28;9.50;;;6.80;;
76818;SDS011;65772;51.096;17.006;2023-06-22T11:53:03;13.60;;;11.70;;
76818;SDS011;65772;51.096;17.006;2023-06-22T11:55:34;11.10;;;7.70;;
76818;SDS011;65772;51.096;17.006;2023-06-22T11:58:05;10.80;;;7.50;;
76818;SDS011;65772;51.096;17.006;2023-06-22T12:00:36;8.30;;;6.60;;
76818;SDS011;65772;51.096;17.006;2023-06-22T12:03:18;8.40;;;6.70;;
76818;SDS011;65772;51.096;17.006;2023-06-22T12:05:50;8.00;;;6.30;;
76818;SDS011;65772;51.096;17.006;2023-06-22T12:10:51;10.60;;;6.80;;
76818;SDS011;65772;51.096;17.006;2023-06-22T12:13:21;11.50;;;9.10;;
76818;SDS011;65772;51.096;17.006;2023-06-22T12:15:52;11.10;;;7.80;;
76818;SDS011;65772;51.096;17.006;2023-06-22T12:18:23;14.50;;;11.10;;
76818;SDS011;65772;51.096;17.006;2023-06-22T12:20:53;12.40;;;8.50;;
76818;SDS011;65772;51.096;17.006;2023-06-22T12:23:24;9.50;;;7.00;;
76818;SDS011;65772;51.096;17.006;2023-06-22T12:25:54;10.60;;;7.20;;
76818;SDS011;65772;51.096;17.006;2023-06-22T12:28:25;7.80;;;6.20;;
76818;SDS011;65772;51.096;17.006;2023-06-22T12:30:56;8.40;;;6.40;;
76818;SDS011;65772;51.096;17.006;2023-06-22T12:33:27;7.90;;;6.00;;
76818;SDS011;65772;51.096;17.006;2023-06-22T12:38:27;9.80;;;6.00;;
76818;SDS011;65772;51.096;17.006;2023-06-22T12:40:57;9.70;;;6.00;;
76818;SDS011;65772;51.096;17.006;2023-06-22T12:43:28;7.60;;;6.20;;
76818;SDS011;65772;51.096;17.006;2023-06-22T12:45:58;7.80;;;6.00;;
76818;SDS011;65772;51.096;17.006;2023-06-22T12:48:29;8.30;;;6.40;;
76818;SDS011;65772;51.096;17.006;2023-06-22T12:51:00;6.60;;;5.40;;
76818;SDS011;65772;51.096;17.006;2023-06-22T12:53:31;7.70;;;6.00;;
76818;SDS011;65772;51.096;17.006;2023-06-22T12:56:01;7.00;;;5.60;;
76818;SDS011;65772;51.096;17.006;2023-06-22T12:58:32;13.30;;;10.10;;
76818;SDS011;65772;51.096;17.006;2023-06-22T13:01:03;10.10;;;7.50;;
76818;SDS011;65772;51.096;17.006;2023-06-22T13:03:33;7.50;;;5.90;;
76818;SDS011;65772;51.096;17.006;2023-06-22T13:06:04;7.10;;;5.60;;
76818;SDS011;65772;51.096;17.006;2023-06-22T13:08:35;7.00;;;5.40;;
76818;SDS011;65772;51.096;17.006;2023-06-22T13:11:08;5.90;;;4.70;;
76818;SDS011;65772;51.096;17.006;2023-06-22T13:13:39;8.10;;;5.90;;
76818;SDS011;65772;51.096;17.006;2023-06-22T13:18:39;7.90;;;5.80;;
76818;SDS011;65772;51.096;17.006;2023-06-22T13:21:10;6.60;;;5.30;;
76818;SDS011;65772;51.096;17.006;2023-06-22T13:23:42;7.50;;;5.50;;
76818;SDS011;65772;51.096;17.006;2023-06-22T13:26:12;7.20;;;5.70;;
76818;SDS011;65772;51.096;17.006;2023-06-22T13:28:43;7.00;;;5.20;;
76818;SDS011;65772;51.096;17.006;2023-06-22T13:31:14;6.80;;;5.60;;
76818;SDS011;65772;51.096;17.006;2023-06-22T13:33:44;8.60;;;5.60;;
76818;SDS011;65772;51.096;17.006;2023-06-22T13:36:16;7.50;;;5.70;;
76818;SDS011;65772;51.096;17.006;2023-06-22T13:38:47;8.40;;;5.90;;
76818;SDS011;65772;51.096;17.006;2023-06-22T13:41:17;7.90;;;6.20;;
76818;SDS011;65772;51.096;17.006;2023-06-22T13:43:48;6.70;;;5.20;;
76818;SDS011;65772;51.096;17.006;2023-06-22T13:46:19;7.80;;;5.00;;
76818;SDS011;65772;51.096;17.006;2023-06-22T13:48:49;6.10;;;4.90;;
76818;SDS011;65772;51.096;17.006;2023-06-22T13:51:23;7.00;;;5.00;;
76818;SDS011;65772;51.096;17.006;2023-06-22T13:53:54;7.30;;;5.40;;
76818;SDS011;65772;51.096;17.006;2023-06-22T13:56:24;7.00;;;5.20;;
76818;SDS011;65772;51.096;17.006;2023-06-22T13:58:55;6.70;;;5.40;;
76818;SDS011;65772;51.096;17.006;2023-06-22T14:01:26;6.10;;;4.50;;
76818;SDS011;65772;51.096;17.006;2023-06-22T14:03:56;7.70;;;5.10;;
76818;SDS011;65772;51.096;17.006;2023-06-22T14:06:27;7.00;;;5.10;;
76818;SDS011;65772;51.096;17.006;2023-06-22T14:09:00;6.50;;;5.00;;
76818;SDS011;65772;51.096;17.006;2023-06-22T14:11:31;7.00;;;5.40;;
76818;SDS011;65772;51.096;17.006;2023-06-22T14:14:01;6.90;;;5.20;;
76818;SDS011;65772;51.096;17.006;2023-06-22T14:16:32;6.20;;;4.80;;
76818;SDS011;65772;51.096;17.006;2023-06-22T14:19:02;6.80;;;5.10;;
76818;SDS011;65772;51.096;17.006;2023-06-22T14:21:33;7.60;;;5.10;;
76818;SDS011;65772;51.096;17.006;2023-06-22T14:26:58;8.90;;;5.40;;
76818;SDS011;65772;51.096;17.006;2023-06-22T14:29:31;6.90;;;5.40;;
76818;SDS011;65772;51.096;17.006;2023-06-22T14:32:01;12.90;;;5.40;;
76818;SDS011;65772;51.096;17.006;2023-06-22T14:34:34;6.30;;;5.00;;
76818;SDS011;65772;51.096;17.006;2023-06-22T14:37:07;8.40;;;5.60;;
76818;SDS011;65772;51.096;17.006;2023-06-22T14:39:38;7.90;;;5.60;;
76818;SDS011;65772;51.096;17.006;2023-06-22T14:42:08;9.50;;;5.70;;
76818;SDS011;65772;51.096;17.006;2023-06-22T14:44:39;19.40;;;15.40;;
76818;SDS011;65772;51.096;17.006;2023-06-22T14:47:10;10.80;;;8.90;;
76818;SDS011;65772;51.096;17.006;2023-06-22T14:49:40;9.60;;;7.00;;
76818;SDS011;65772;51.096;17.006;2023-06-22T14:52:11;7.80;;;5.50;;
76818;SDS011;65772;51.096;17.006;2023-06-22T14:54:42;11.30;;;6.60;;
76818;SDS011;65772;51.096;17.006;2023-06-22T14:57:12;8.20;;;6.20;;
76818;SDS011;65772;51.096;17.006;2023-06-22T14:59:45;8.40;;;5.90;;
76818;SDS011;65772;51.096;17.006;2023-06-22T15:02:16;7.70;;;5.50;;